Terminal Aerodrome Forecast
Issued by NWS Green Bay, WI

Home | Current Version | Previous Version | Graphics & Text | Print | Product List | Glossary On
Versions: 1 2 3 4 5 6 7 8 9 10 11 12 13 14 15 16 17 18 19
000
FTUS43 KGRB 162354 AAA
TAFGRB
TAF AMD
KGRB 162354Z 1700/1724 31011G20KT P6SM -SHSN OVC040
     FM171000 29010KT P6SM SCT040 BKN070
     FM171400 32012G20KT P6SM BKN028
     FM171800 33008G17KT P6SM BKN035=

USA.gov is the U.S. government's official web portal to all federal, state and local government web resources and services.